This is the latest recevied weather packets stored in our database for station/object KN6KS. If no packets are shown the sender has not sent any weather packets the latest 10 day(s).
| Time | Temp. | Humidity | Pressure | Rain* | Wind** | Luminosity | Snow |
|---|---|---|---|---|---|---|---|
| 1778151062 | 15° C | 49% | 1015.9 hPa | 0 mm | - | 0 W/m² | - |
| 1778150760 | 15° C | 50% | 1015.9 hPa | 0 mm | - | 0 W/m² | - |
| 1778150456 | 14.44° C | 51% | 1016 hPa | 0 mm | - | 0 W/m² | - |
| 1778150152 | 14.44° C | 51% | 1016 hPa | 0 mm | - | 0 W/m² | - |
| 1778149849 | 14.44° C | 55% | 1016.2 hPa | 0 mm | - | 0 W/m² | - |
| 1778149546 | 14.44° C | 53% | 1016 hPa | 0 mm | - | 0 W/m² | - |
| 1778149242 | 15° C | 52% | 1015.9 hPa | 0 mm | - | 0 W/m² | - |
| 1778148937 | 15° C | 51% | 1016 hPa | 0 mm | - | 0 W/m² | - |
| 1778148634 | 15.56° C | 48% | 1016 hPa | 0 mm | - | 0 W/m² | - |
| 1778148331 | 15° C | 47% | 1016.1 hPa | 0 mm | - | 0 W/m² | - |
| 1778148030 | 15.56° C | 51% | 1016.2 hPa | 0 mm | - | 0 W/m² | - |
| 1778147727 | 15.56° C | 48% | 1015.8 hPa | 0 mm | - | 0 W/m² | - |
| 1778147423 | 16.11° C | 47% | 1015.9 hPa | 0 mm | - | 0 W/m² | - |
| 1778147120 | 16.11° C | 45% | 1015.7 hPa | 0 mm | - | 0 W/m² | - |
| 1778146817 | 16.11° C | 49% | 1016.1 hPa | 0 mm | - | 0 W/m² | - |
| 1778146514 | 16.11° C | 46% | 1016 hPa | 0 mm | - | 0 W/m² | - |
| 1778146213 | 16.11° C | 46% | 1015.9 hPa | 0 mm | - | 0 W/m² | - |
| 1778145909 | 16.67° C | 46% | 1016.1 hPa | 0 mm | - | 0 W/m² | - |
| 1778145606 | 16.67° C | 45% | 1015.9 hPa | 0 mm | - | 0 W/m² | - |
| 1778145303 | 17.22° C | 44% | 1016.2 hPa | 0 mm | - | 0 W/m² | - |
| 1778144998 | 17.22° C | 44% | 1016.1 hPa | 0 mm | - | 0 W/m² | - |
| 1778144694 | 17.22° C | 45% | 1016.2 hPa | 0 mm | - | 0 W/m² | - |
| 1778144391 | 17.22° C | 44% | 1016.3 hPa | 0 mm | - | 0 W/m² | - |
| 1778144088 | 17.78° C | 44% | 1016.1 hPa | 0 mm | - | 0 W/m² | - |
| 1778143785 | 17.22° C | 45% | 1016.1 hPa | 0 mm | - | 0 W/m² | - |
* Rain latest hour (hover to see other rain measurements)
** Current wind speed in m/s (hover to see current wind gust speed)